Bethany, Ohio
Current Conditions -  °F | °C
As of 8:55 PM on Sunday 21 Dec 2014 (Local Time) from KMWO Reporting Station
Haze Haze  
Wind Chill: 29°   Ceiling: Unl
Heat Index: 29°   Visibility: 5mi
Dew Point: 24°   Wind: 0mph
Humidity: 84%   Direction: NA
Pressure: 30.2"   Gusts: NA
Location:  39.5538°N, 84.4567°W
Report Text: KMWO 220155Z AUTO 00000KT 5SM HZ CLR M02/M04 A3020 RMK AO2 T10181042
Loading
Personal Weather Stations






























Interactive Weather Map New forecast layout! Learn more

10-Day Weather Forecast

Advertisements
Track Severe Weather on mobile